Airfield :
LOGIN :

Register | Disclaimer

   EN    FR    IT 

 










Legend :    VFR   Marginal VFR   IFR   Intensive IFR   Very Intensive IFR
Visi :
Ceiling :
>= 8 km
>= 3000ft
5 to 8 km
1000 to 3000 ft
1500m to 5 km
500 to 1000 ft
800 to 1500m
200 to 500 ft
< 800m
< 200 ft
Symbols :   Thunderstorms  Fog  Heavy snow  Heavy precipitations  Wind > 20 kt
SIGMETs :     Misc.  Thunderstorms  Icing  Turbulence  Mountain Waves  Volcanic Ashes






- Airport Elevation : 376 ft


LHKE - Kecskemét

CURRENT METAR :
  • 250515Z 17002KT 2000 BR OVC005 01/01 Q1029 R12/01//95 NOSIG RMK YLO

EXPIRED METARs :
  • 250445Z 18004KT 2000 BR OVC004 01/01 Q1029 R12/01//95 NOSIG RMK YLO
  • 250415Z 16002KT 1500 BR OVC003 01/01 Q1029 R12/01//95 NOSIG RMK AMB
  • 250345Z 16004KT 1000 BR OVC003 01/01 Q1029 R12/01//95 TEMPO 1500 RMK AMB
  • 250315Z 14002KT 1000 BR OVC003 01/01 Q1029 REFG R12/01//95 NOSIG RMK AMB
  • 250245Z 00000KT 0800 FG OVC002 01/01 Q1029 R12/01//95 NOSIG RMK AMB

TAF TAF LHKE
Valid from the 25 at 06:00 until the 25 at 15:00 UTC


250515Z 2506/2515 15005KT 3000 BR OVC005
TEMPO 2506/2508 1500 BR OVC003
BECMG 2508/2511 5000 BR BKN007 OVC012
TEMPO 2511/2515 7000 NSW BKN010 OVC015



MET'MAP, your aeronautical weather chart ! - Copyright ORBIFLY December 2007 - Disclaimer

ORBIFLY MET'MAP TEAM :

Programming & Development : Alexandra Zaïnal
Concept & original design : Baudouin d'Aumeries
Assistance for programming : Marc-Olivier Méhu
Technical & hardware support : Manuel Goepfert

Contact : metmap@orbifly.com




SOURCES & CREDITS :

   NOAA